Time;durP1;ratioP1;P1;durP2;ratioP2;P2;SDS_P1;SDS_P2;PMS_P1;PMS_P2;Temp;Humidity;BMP_temperature;BMP_pressure;BME280_temperature;BME280_humidity;BME280_pressure;Samples;Min_cycle;Max_cycle;Signal;HPM_P1;HPM_P2
2023/10/24 00:02:29;;;;;;;;;;;19.80;63.50;;;;;;6313778;28;20008;-62
2023/10/24 00:05:29;;;;;;;;;;;19.80;63.50;;;;;;6313980;28;19912;-63
2023/10/24 00:08:30;;;;;;;;;;;19.90;63.50;;;;;;6313768;28;19908;-62
2023/10/24 00:11:30;;;;;;;;;;;19.80;63.50;;;;;;6314017;28;19909;-62
2023/10/24 00:14:31;;;;;;;;;;;19.90;63.60;;;;;;6314313;28;19915;-62
2023/10/24 00:17:31;;;;;;;;;;;19.80;63.50;;;;;;6314158;28;20310;-62
2023/10/24 00:20:32;;;;;;;;;;;19.80;63.40;;;;;;6313501;28;19923;-62
2023/10/24 00:23:32;;;;;;;;;;;19.80;63.50;;;;;;6314671;28;20428;-62
2023/10/24 00:26:33;;;;;;;;;;;19.80;63.50;;;;;;6313689;28;19913;-62
2023/10/24 00:29:33;;;;;;;;;;;19.80;63.30;;;;;;6313768;28;19915;-62
2023/10/24 00:32:34;;;;;;;;;;;19.80;63.40;;;;;;6314031;28;19943;-62
2023/10/24 00:35:34;;;;;;;;;;;19.80;63.40;;;;;;6313800;28;20382;-61
2023/10/24 00:38:35;;;;;;;;;;;19.80;63.40;;;;;;6314286;28;20534;-62
2023/10/24 00:41:35;;;;;;;;;;;19.80;63.50;;;;;;6313258;28;19970;-62
2023/10/24 00:44:36;;;;;;;;;;;19.80;63.50;;;;;;6313471;28;19935;-62
2023/10/24 00:47:39;;;;;;;;;;;19.80;63.40;;;;;;6313739;28;20373;-62
2023/10/24 00:50:40;;;;;;;;;;;19.80;63.50;;;;;;6313834;28;19999;-62
2023/10/24 00:53:41;;;;;;;;;;;19.80;63.40;;;;;;6313095;28;19914;-62
2023/10/24 00:56:43;;;;;;;;;;;19.80;63.40;;;;;;6313611;28;19965;-62
2023/10/24 00:59:44;;;;;;;;;;;19.80;63.40;;;;;;6313392;28;20010;-62
2023/10/24 01:02:44;;;;;;;;;;;19.80;63.40;;;;;;6318004;28;19957;-62
2023/10/24 01:05:46;;;;;;;;;;;19.80;63.40;;;;;;6318216;28;20378;-61
2023/10/24 01:08:47;;;;;;;;;;;19.80;63.40;;;;;;6317630;28;19961;-62
2023/10/24 01:11:49;;;;;;;;;;;19.80;63.30;;;;;;6318005;28;20180;-62
2023/10/24 01:14:49;;;;;;;;;;;19.80;63.30;;;;;;6317449;28;19957;-62
2023/10/24 01:17:50;;;;;;;;;;;19.80;63.40;;;;;;6318183;28;19908;-62
2023/10/24 01:20:50;;;;;;;;;;;19.80;63.30;;;;;;6308837;28;19919;-62
2023/10/24 01:23:53;;;;;;;;;;;19.80;63.50;;;;;;6317128;28;19908;-62
2023/10/24 01:26:55;;;;;;;;;;;19.80;63.30;;;;;;6316891;28;19919;-62
2023/10/24 01:29:56;;;;;;;;;;;19.80;63.30;;;;;;6316761;28;19908;-62
2023/10/24 01:32:57;;;;;;;;;;;19.80;63.40;;;;;;6316433;28;19962;-62
2023/10/24 01:35:57;;;;;;;;;;;19.80;63.40;;;;;;6315794;28;19931;-62
2023/10/24 01:38:58;;;;;;;;;;;19.80;63.40;;;;;;6316747;28;19969;-62
2023/10/24 01:41:58;;;;;;;;;;;19.80;63.30;;;;;;6316571;28;20451;-62
2023/10/24 01:44:59;;;;;;;;;;;19.80;63.40;;;;;;6317019;28;20667;-62
2023/10/24 01:47:59;;;;;;;;;;;19.80;63.40;;;;;;6315975;28;19912;-62
2023/10/24 01:51:00;;;;;;;;;;;19.80;63.50;;;;;;6316507;28;19916;-62
2023/10/24 01:54:00;;;;;;;;;;;19.80;63.40;;;;;;6316695;28;19908;-62
2023/10/24 01:57:01;;;;;;;;;;;19.80;63.40;;;;;;6316108;28;19915;-62
2023/10/24 02:00:03;;;;;;;;;;;19.80;63.30;;;;;;6316528;28;20405;-62
2023/10/24 02:03:04;;;;;;;;;;;19.80;63.40;;;;;;6315798;28;19912;-62
2023/10/24 02:06:04;;;;;;;;;;;19.80;63.40;;;;;;6316134;28;19973;-61
2023/10/24 02:09:05;;;;;;;;;;;19.80;63.40;;;;;;6316038;28;19956;-62
2023/10/24 02:12:06;;;;;;;;;;;19.80;63.40;;;;;;6315406;28;19931;-62
2023/10/24 02:15:06;;;;;;;;;;;19.80;63.30;;;;;;6314656;28;19987;-60
2023/10/24 02:18:07;;;;;;;;;;;19.80;63.40;;;;;;6315553;28;19909;-61
2023/10/24 02:21:08;;;;;;;;;;;19.80;63.30;;;;;;6315998;28;19999;-62
2023/10/24 02:24:08;;;;;;;;;;;19.80;63.40;;;;;;6315570;28;19912;-61
2023/10/24 02:27:09;;;;;;;;;;;19.80;63.40;;;;;;6316119;28;19908;-62
2023/10/24 02:30:09;;;;;;;;;;;19.80;63.40;;;;;;6315106;28;19912;-62
2023/10/24 02:33:10;;;;;;;;;;;19.80;63.40;;;;;;6315502;28;19916;-62
2023/10/24 02:36:11;;;;;;;;;;;19.80;63.30;;;;;;6315286;28;19916;-61
2023/10/24 02:39:11;;;;;;;;;;;19.80;63.40;;;;;;6315355;28;20236;-62
2023/10/24 02:42:12;;;;;;;;;;;19.80;63.60;;;;;;6315302;28;19962;-62
2023/10/24 02:45:13;;;;;;;;;;;19.80;63.40;;;;;;6315512;28;19908;-62
2023/10/24 02:48:13;;;;;;;;;;;19.80;63.40;;;;;;6315278;28;20382;-62
2023/10/24 02:51:13;;;;;;;;;;;19.80;63.40;;;;;;6315013;28;20403;-61
2023/10/24 02:54:14;;;;;;;;;;;19.80;63.40;;;;;;6314849;28;19912;-62
2023/10/24 02:57:16;;;;;;;;;;;19.80;63.40;;;;;;6314756;28;19912;-61
2023/10/24 03:00:16;;;;;;;;;;;19.80;63.40;;;;;;6314518;28;20403;-61
2023/10/24 03:03:17;;;;;;;;;;;19.80;63.30;;;;;;6315121;28;20235;-62
2023/10/24 03:06:18;;;;;;;;;;;19.80;63.30;;;;;;6314953;28;20282;-62
2023/10/24 03:09:18;;;;;;;;;;;19.80;63.40;;;;;;6314635;28;20414;-62
2023/10/24 03:12:19;;;;;;;;;;;19.80;63.70;;;;;;6314859;28;19917;-62
2023/10/24 03:15:20;;;;;;;;;;;19.80;63.40;;;;;;6314418;28;19947;-62
2023/10/24 03:18:21;;;;;;;;;;;19.80;63.40;;;;;;6313405;28;20395;-62
2023/10/24 03:21:21;;;;;;;;;;;19.80;63.40;;;;;;6313880;28;19916;-60
2023/10/24 03:24:22;;;;;;;;;;;19.80;63.40;;;;;;6313918;28;19919;-61
2023/10/24 03:27:22;;;;;;;;;;;19.80;63.40;;;;;;6314517;28;19908;-61
2023/10/24 03:30:23;;;;;;;;;;;19.80;63.40;;;;;;6314589;28;19931;-61
2023/10/24 03:33:23;;;;;;;;;;;19.80;63.40;;;;;;6314650;28;20371;-62
2023/10/24 03:36:24;;;;;;;;;;;19.80;63.40;;;;;;6314133;28;20160;-61
2023/10/24 03:39:24;;;;;;;;;;;19.80;63.40;;;;;;6314235;28;19943;-62
2023/10/24 03:42:41;;;;;;;;;;;19.80;63.40;;;;;;6309674;28;20983;-61
2023/10/24 03:45:41;;;;;;;;;;;19.80;63.50;;;;;;6314250;28;19912;-61
2023/10/24 03:48:42;;;;;;;;;;;19.80;63.40;;;;;;6314231;28;19915;-62
2023/10/24 03:51:43;;;;;;;;;;;19.80;63.50;;;;;;6314016;28;20006;-61
2023/10/24 03:54:43;;;;;;;;;;;19.80;63.40;;;;;;6314344;28;19908;-62
2023/10/24 03:57:44;;;;;;;;;;;19.80;63.40;;;;;;6314044;28;19908;-61
2023/10/24 04:00:44;;;;;;;;;;;19.80;63.30;;;;;;6314666;28;19916;-62
2023/10/24 04:03:45;;;;;;;;;;;19.80;63.50;;;;;;6314386;28;20015;-61
2023/10/24 04:06:45;;;;;;;;;;;19.80;63.30;;;;;;6314177;28;19908;-61
2023/10/24 04:09:46;;;;;;;;;;;19.80;63.50;;;;;;6314110;28;19908;-62
2023/10/24 04:12:46;;;;;;;;;;;19.80;63.40;;;;;;6314406;28;19913;-61
2023/10/24 04:15:47;;;;;;;;;;;19.80;63.40;;;;;;6313881;28;19919;-62
2023/10/24 04:18:47;;;;;;;;;;;19.80;63.30;;;;;;6314433;28;19909;-61
2023/10/24 04:21:48;;;;;;;;;;;19.80;63.30;;;;;;6314155;28;20449;-61
2023/10/24 04:24:48;;;;;;;;;;;19.80;63.30;;;;;;6314690;28;20325;-62
2023/10/24 04:27:49;;;;;;;;;;;19.80;63.30;;;;;;6314323;28;19946;-62
2023/10/24 04:30:51;;;;;;;;;;;19.80;63.40;;;;;;6314402;28;19908;-61
2023/10/24 04:33:51;;;;;;;;;;;19.80;63.30;;;;;;6314962;28;20370;-62
2023/10/24 04:36:53;;;;;;;;;;;19.80;63.30;;;;;;6318709;28;19915;-62
2023/10/24 04:39:54;;;;;;;;;;;19.80;63.30;;;;;;6317634;28;19916;-62
2023/10/24 04:42:55;;;;;;;;;;;19.80;63.30;;;;;;6318772;28;20296;-62
2023/10/24 04:45:55;;;;;;;;;;;19.80;63.30;;;;;;6317291;28;19919;-62
2023/10/24 04:48:56;;;;;;;;;;;19.80;63.30;;;;;;6317400;28;19987;-62
2023/10/24 04:51:56;;;;;;;;;;;19.80;63.30;;;;;;6318738;28;20402;-62
2023/10/24 04:54:57;;;;;;;;;;;19.80;63.40;;;;;;6319036;28;20028;-62
2023/10/24 04:57:58;;;;;;;;;;;19.80;63.30;;;;;;6317307;28;19930;-62
2023/10/24 05:00:59;;;;;;;;;;;19.80;63.40;;;;;;6310879;28;19916;-64
2023/10/24 05:03:59;;;;;;;;;;;19.80;63.30;;;;;;6308453;28;19916;-64
2023/10/24 05:07:00;;;;;;;;;;;19.80;63.30;;;;;;6313288;28;19919;-64
2023/10/24 05:10:00;;;;;;;;;;;19.80;64.10;;;;;;6312432;28;19935;-63
2023/10/24 05:13:01;;;;;;;;;;;19.70;63.70;;;;;;6318692;28;19912;-63
2023/10/24 05:16:02;;;;;;;;;;;19.70;63.80;;;;;;6319030;28;19964;-64
2023/10/24 05:19:03;;;;;;;;;;;19.70;63.40;;;;;;6316813;28;20435;-64
2023/10/24 05:22:04;;;;;;;;;;;19.70;63.20;;;;;;6314848;28;19912;-64
2023/10/24 05:25:04;;;;;;;;;;;19.70;63.00;;;;;;6318428;28;19912;-64
2023/10/24 05:28:05;;;;;;;;;;;19.70;62.40;;;;;;6316209;28;19930;-61
2023/10/24 05:31:07;;;;;;;;;;;19.70;62.70;;;;;;6314954;28;19912;-63
2023/10/24 05:34:08;;;;;;;;;;;19.70;62.60;;;;;;6316221;28;19923;-60
2023/10/24 05:37:09;;;;;;;;;;;19.70;62.20;;;;;;6317218;28;19940;-62
2023/10/24 05:40:09;;;;;;;;;;;19.70;61.40;;;;;;6315665;28;19920;-65
2023/10/24 05:43:10;;;;;;;;;;;19.70;61.20;;;;;;6315764;28;19920;-63
2023/10/24 05:46:11;;;;;;;;;;;19.70;61.10;;;;;;6310661;28;20026;-62
2023/10/24 05:49:11;;;;;;;;;;;19.70;61.80;;;;;;6316865;28;19954;-60
2023/10/24 05:52:12;;;;;;;;;;;19.80;61.70;;;;;;6309560;28;19920;-62
2023/10/24 05:55:13;;;;;;;;;;;19.70;61.40;;;;;;6314971;28;19916;-61
2023/10/24 05:58:13;;;;;;;;;;;19.70;61.90;;;;;;6313944;28;20379;-61
2023/10/24 06:01:14;;;;;;;;;;;19.70;61.50;;;;;;6317015;28;19959;-62
2023/10/24 06:04:14;;;;;;;;;;;19.70;61.50;;;;;;6317811;28;19912;-61
2023/10/24 06:07:14;;;;;;;;;;;19.70;61.50;;;;;;6316791;28;20006;-57
2023/10/24 06:10:15;;;;;;;;;;;19.80;61.20;;;;;;6317649;28;19991;-61
2023/10/24 06:13:15;;;;;;;;;;;19.70;61.10;;;;;;6317365;28;19912;-62
2023/10/24 06:16:19;;;;;;;;;;;19.80;61.40;;;;;;6316504;28;19912;-60
2023/10/24 06:19:19;;;;;;;;;;;19.80;62.00;;;;;;6313161;28;19912;-62
2023/10/24 06:22:20;;;;;;;;;;;19.80;61.50;;;;;;6312580;28;20401;-61
2023/10/24 06:25:21;;;;;;;;;;;19.80;61.40;;;;;;6314831;28;20762;-62
2023/10/24 06:28:22;;;;;;;;;;;19.70;62.50;;;;;;6314339;28;19955;-62
2023/10/24 06:31:22;;;;;;;;;;;19.70;61.90;;;;;;6316267;28;19908;-62
2023/10/24 06:34:23;;;;;;;;;;;19.70;61.50;;;;;;6317049;28;19916;-62
2023/10/24 06:37:23;;;;;;;;;;;19.70;61.80;;;;;;6314780;28;19912;-62
2023/10/24 06:40:24;;;;;;;;;;;19.70;61.70;;;;;;6305558;28;19927;-61
2023/10/24 06:43:25;;;;;;;;;;;19.80;62.20;;;;;;6316753;28;19920;-62
2023/10/24 06:46:25;;;;;;;;;;;19.80;62.30;;;;;;6318739;28;19934;-64
2023/10/24 06:49:26;;;;;;;;;;;19.80;62.60;;;;;;6316085;28;19908;-67
2023/10/24 06:52:27;;;;;;;;;;;19.90;63.00;;;;;;6316657;28;20321;-65
2023/10/24 06:55:27;;;;;;;;;;;19.90;63.40;;;;;;6319995;28;19957;-66
2023/10/24 06:58:28;;;;;;;;;;;19.90;63.40;;;;;;6314126;28;19920;-66
2023/10/24 07:01:29;;;;;;;;;;;20.00;64.10;;;;;;6310909;28;20347;-66
2023/10/24 07:04:29;;;;;;;;;;;20.00;63.60;;;;;;6314662;28;19915;-66
2023/10/24 07:07:30;;;;;;;;;;;20.00;63.60;;;;;;6313445;28;19908;-66
2023/10/24 07:10:33;;;;;;;;;;;20.00;64.30;;;;;;6314650;28;19912;-65
2023/10/24 07:13:37;;;;;;;;;;;20.00;65.10;;;;;;6315815;28;19940;-64
2023/10/24 07:16:37;;;;;;;;;;;20.00;65.10;;;;;;6317077;28;19935;-63
2023/10/24 07:19:38;;;;;;;;;;;20.00;64.90;;;;;;6316420;28;19908;-63
2023/10/24 07:22:38;;;;;;;;;;;20.00;64.10;;;;;;6316466;28;19918;-65
2023/10/24 07:25:39;;;;;;;;;;;19.90;64.40;;;;;;6315594;28;19915;-63
2023/10/24 07:28:39;;;;;;;;;;;19.90;64.10;;;;;;6316167;28;19958;-63
2023/10/24 07:31:40;;;;;;;;;;;19.80;62.90;;;;;;6317805;28;19961;-64
2023/10/24 07:34:41;;;;;;;;;;;19.80;62.90;;;;;;6315444;28;19926;-64
2023/10/24 07:37:42;;;;;;;;;;;19.80;62.70;;;;;;6317522;28;20003;-64
2023/10/24 07:40:42;;;;;;;;;;;19.80;63.00;;;;;;6315393;28;19924;-64
2023/10/24 07:43:44;;;;;;;;;;;19.80;63.10;;;;;;6315609;28;19939;-65
2023/10/24 07:46:45;;;;;;;;;;;19.80;63.30;;;;;;6315375;28;19912;-65
2023/10/24 07:49:46;;;;;;;;;;;19.80;63.30;;;;;;6317182;28;20370;-65
2023/10/24 07:52:46;;;;;;;;;;;19.80;63.40;;;;;;6314685;28;20042;-65
2023/10/24 07:55:46;;;;;;;;;;;19.80;63.50;;;;;;6319133;28;20279;-64
2023/10/24 07:58:47;;;;;;;;;;;19.80;63.40;;;;;;6315512;28;19916;-63
2023/10/24 08:01:47;;;;;;;;;;;19.80;63.40;;;;;;6315309;28;19912;-65
2023/10/24 08:04:48;;;;;;;;;;;19.80;63.30;;;;;;6315316;28;19943;-64
2023/10/24 08:07:48;;;;;;;;;;;19.80;63.30;;;;;;6315288;28;19908;-65
2023/10/24 08:10:49;;;;;;;;;;;19.80;63.30;;;;;;6318869;28;19909;-64
2023/10/24 08:13:49;;;;;;;;;;;19.80;63.30;;;;;;6319881;28;20397;-64
2023/10/24 08:16:50;;;;;;;;;;;19.80;63.20;;;;;;6322227;28;20011;-64
2023/10/24 08:19:50;;;;;;;;;;;19.80;63.30;;;;;;6319898;28;19908;-65
2023/10/24 08:22:52;;;;;;;;;;;19.80;63.20;;;;;;6320507;28;20245;-64
2023/10/24 08:25:52;;;;;;;;;;;19.80;63.10;;;;;;6320318;28;19915;-64
2023/10/24 08:28:53;;;;;;;;;;;19.80;63.20;;;;;;6314549;28;20256;-64
2023/10/24 08:31:53;;;;;;;;;;;19.80;63.20;;;;;;6322084;28;20049;-64
2023/10/24 08:34:54;;;;;;;;;;;19.80;63.30;;;;;;6319508;28;19944;-64
2023/10/24 08:37:55;;;;;;;;;;;19.80;63.10;;;;;;6321178;28;20297;-64
2023/10/24 08:40:56;;;;;;;;;;;19.80;63.20;;;;;;6321288;28;19924;-65
2023/10/24 08:43:57;;;;;;;;;;;19.80;63.10;;;;;;6319868;28;19950;-63
2023/10/24 08:46:57;;;;;;;;;;;19.80;63.10;;;;;;6319354;28;19912;-65
2023/10/24 08:49:59;;;;;;;;;;;19.80;63.10;;;;;;6320064;28;19916;-64
2023/10/24 08:53:00;;;;;;;;;;;19.80;63.10;;;;;;6319557;28;20223;-64
2023/10/24 08:56:02;;;;;;;;;;;19.80;63.10;;;;;;6318941;28;19912;-65
2023/10/24 08:59:03;;;;;;;;;;;19.80;63.10;;;;;;6319047;28;19912;-64
2023/10/24 09:02:04;;;;;;;;;;;19.80;63.10;;;;;;6319326;28;19920;-64
2023/10/24 09:05:05;;;;;;;;;;;19.80;63.10;;;;;;6318846;28;20283;-64
2023/10/24 09:08:06;;;;;;;;;;;19.80;63.10;;;;;;6320957;28;20224;-64
2023/10/24 09:11:06;;;;;;;;;;;19.80;63.10;;;;;;6318859;28;19908;-64
2023/10/24 09:14:07;;;;;;;;;;;19.80;63.10;;;;;;6318876;28;19909;-64
2023/10/24 09:17:07;;;;;;;;;;;19.80;63.20;;;;;;6318486;28;19933;-65
2023/10/24 09:20:08;;;;;;;;;;;19.80;63.10;;;;;;6318279;28;19976;-64
2023/10/24 09:23:09;;;;;;;;;;;19.80;63.10;;;;;;6319845;28;20437;-65
2023/10/24 09:26:11;;;;;;;;;;;19.80;63.10;;;;;;6318446;28;20325;-64
2023/10/24 09:29:11;;;;;;;;;;;19.80;63.10;;;;;;6318554;28;19908;-64
2023/10/24 09:32:14;;;;;;;;;;;19.80;63.10;;;;;;6318124;28;19970;-63
2023/10/24 09:35:15;;;;;;;;;;;19.80;63.10;;;;;;6322055;28;19912;-64
2023/10/24 09:38:17;;;;;;;;;;;19.80;63.10;;;;;;6318068;28;19909;-64
2023/10/24 09:41:18;;;;;;;;;;;19.80;63.10;;;;;;6317778;28;19927;-65
2023/10/24 09:44:19;;;;;;;;;;;19.80;63.30;;;;;;6317556;28;19998;-65
2023/10/24 09:47:20;;;;;;;;;;;19.80;63.00;;;;;;6317907;28;20286;-64
2023/10/24 09:50:21;;;;;;;;;;;19.80;63.10;;;;;;6318390;28;19908;-64
2023/10/24 09:53:22;;;;;;;;;;;19.80;63.20;;;;;;6316666;28;19908;-64
2023/10/24 09:56:24;;;;;;;;;;;19.80;63.30;;;;;;6317687;28;20222;-64
2023/10/24 09:59:26;;;;;;;;;;;19.80;63.20;;;;;;6317814;28;19918;-64
2023/10/24 10:02:27;;;;;;;;;;;19.80;63.10;;;;;;6320415;28;20424;-65
2023/10/24 10:05:28;;;;;;;;;;;19.80;63.20;;;;;;6319618;28;20298;-64
2023/10/24 10:08:30;;;;;;;;;;;19.80;63.20;;;;;;6319370;28;19912;-65
2023/10/24 10:11:31;;;;;;;;;;;19.80;63.10;;;;;;6317418;28;19912;-64
2023/10/24 10:14:37;;;;;;;;;;;19.80;63.30;;;;;;6317951;28;20302;-64
2023/10/24 10:17:50;;;;;;;;;;;19.80;63.10;;;;;;6317978;28;19908;-65
2023/10/24 10:21:05;;;;;;;;;;;19.80;63.10;;;;;;6317016;28;19908;-65
2023/10/24 10:24:24;;;;;;;;;;;19.80;63.10;;;;;;6314686;28;19912;-64
2023/10/24 10:27:47;;;;;;;;;;;19.80;63.30;;;;;;6317189;28;20011;-64
2023/10/24 10:30:57;;;;;;;;;;;19.80;63.10;;;;;;6316396;28;20118;-64
2023/10/24 10:33:58;;;;;;;;;;;19.80;63.10;;;;;;6311349;28;20409;-64
2023/10/24 10:36:58;;;;;;;;;;;19.80;63.10;;;;;;6315946;28;19922;-64
2023/10/24 10:40:14;;;;;;;;;;;19.80;63.30;;;;;;6316094;28;20459;-64
2023/10/24 10:43:28;;;;;;;;;;;19.80;63.20;;;;;;6316519;28;20394;-65
2023/10/24 10:46:30;;;;;;;;;;;19.80;63.20;;;;;;6318306;28;20259;-65
2023/10/24 10:49:51;;;;;;;;;;;19.80;63.20;;;;;;6317086;28;20338;-65
2023/10/24 10:52:56;;;;;;;;;;;19.80;63.20;;;;;;6317920;28;20125;-64
2023/10/24 10:56:02;;;;;;;;;;;19.80;63.30;;;;;;6310254;28;19924;-65
2023/10/24 10:59:12;;;;;;;;;;;19.80;63.50;;;;;;6316214;28;20378;-64
2023/10/24 11:02:32;;;;;;;;;;;19.80;63.30;;;;;;6316115;28;19943;-64
2023/10/24 11:05:32;;;;;;;;;;;19.80;63.30;;;;;;6316165;28;19931;-64
2023/10/24 11:08:33;;;;;;;;;;;19.80;63.10;;;;;;6315708;28;19908;-64
2023/10/24 11:11:33;;;;;;;;;;;19.80;63.30;;;;;;6317904;28;19938;-64
2023/10/24 11:14:34;;;;;;;;;;;19.80;63.30;;;;;;6315908;28;19908;-63
2023/10/24 11:17:34;;;;;;;;;;;19.80;63.30;;;;;;6317884;28;19964;-64
2023/10/24 11:20:35;;;;;;;;;;;19.80;63.30;;;;;;6314494;28;20283;-64
2023/10/24 11:23:37;;;;;;;;;;;19.80;63.30;;;;;;6314227;28;19958;-64
2023/10/24 11:26:37;;;;;;;;;;;19.80;63.30;;;;;;6315692;28;20003;-64
2023/10/24 11:29:38;;;;;;;;;;;19.80;63.20;;;;;;6315487;28;19908;-64
2023/10/24 11:32:39;;;;;;;;;;;19.80;63.20;;;;;;6318041;28;19912;-64
2023/10/24 11:35:40;;;;;;;;;;;19.80;63.40;;;;;;6315541;28;19919;-64
2023/10/24 11:38:40;;;;;;;;;;;19.80;63.30;;;;;;6315473;28;19943;-65
2023/10/24 11:41:44;;;;;;;;;;;19.80;63.30;;;;;;6316167;28;20183;-65
2023/10/24 11:44:45;;;;;;;;;;;19.80;63.30;;;;;;6318582;28;19935;-63
2023/10/24 11:47:45;;;;;;;;;;;19.80;63.20;;;;;;6315986;28;19912;-63
2023/10/24 11:50:46;;;;;;;;;;;19.80;63.30;;;;;;6314291;28;20275;-64
2023/10/24 11:53:47;;;;;;;;;;;19.70;63.20;;;;;;6317393;28;19912;-63
2023/10/24 11:56:48;;;;;;;;;;;19.70;63.20;;;;;;6316670;28;20418;-62
2023/10/24 11:59:50;;;;;;;;;;;19.80;63.30;;;;;;6310142;28;19939;-62
2023/10/24 12:02:52;;;;;;;;;;;19.80;63.40;;;;;;6310070;28;19955;-63
2023/10/24 12:05:55;;;;;;;;;;;19.80;63.30;;;;;;6316519;28;20290;-61
2023/10/24 12:08:57;;;;;;;;;;;19.80;63.40;;;;;;6310222;28;19912;-63
2023/10/24 12:12:00;;;;;;;;;;;19.80;63.50;;;;;;6317129;28;19908;-64
2023/10/24 12:15:01;;;;;;;;;;;19.90;64.00;;;;;;6317045;28;20278;-63
2023/10/24 12:18:04;;;;;;;;;;;19.90;63.60;;;;;;6316790;28;19912;-62
2023/10/24 12:21:07;;;;;;;;;;;20.00;63.80;;;;;;6316866;28;20386;-64
2023/10/24 12:24:08;;;;;;;;;;;20.00;63.80;;;;;;6316466;28;19970;-62
2023/10/24 12:27:08;;;;;;;;;;;20.00;63.90;;;;;;6315413;28;19933;-63
2023/10/24 12:30:09;;;;;;;;;;;20.00;63.60;;;;;;6316895;28;19915;-61
2023/10/24 12:33:10;;;;;;;;;;;20.10;64.10;;;;;;6315316;28;19908;-62
2023/10/24 12:36:11;;;;;;;;;;;20.10;64.10;;;;;;6316934;28;19950;-63
2023/10/24 12:39:12;;;;;;;;;;;20.10;64.50;;;;;;6316688;28;19916;-62
2023/10/24 12:42:12;;;;;;;;;;;20.10;64.30;;;;;;6316554;28;19920;-62
2023/10/24 12:45:13;;;;;;;;;;;20.10;64.70;;;;;;6316667;28;19912;-63
2023/10/24 12:48:16;;;;;;;;;;;20.10;64.40;;;;;;6315163;28;19934;-63
2023/10/24 12:51:17;;;;;;;;;;;20.10;65.00;;;;;;6316557;28;19957;-65
2023/10/24 12:54:17;;;;;;;;;;;20.10;65.10;;;;;;6316161;28;19908;-64
2023/10/24 12:57:19;;;;;;;;;;;20.20;66.10;;;;;;6327609;28;19915;-64
2023/10/24 13:00:19;;;;;;;;;;;20.20;66.30;;;;;;6320810;28;19908;-65
2023/10/24 13:03:20;;;;;;;;;;;20.10;66.00;;;;;;6319577;28;19912;-65
2023/10/24 13:06:22;;;;;;;;;;;20.10;66.00;;;;;;6320204;28;19908;-64
2023/10/24 13:09:24;;;;;;;;;;;20.00;66.20;;;;;;6318852;28;19985;-65
2023/10/24 13:12:25;;;;;;;;;;;20.00;66.10;;;;;;6321170;28;19991;-65
2023/10/24 13:15:25;;;;;;;;;;;19.90;66.00;;;;;;6319325;28;20317;-64
2023/10/24 13:18:26;;;;;;;;;;;19.90;66.00;;;;;;6324013;28;19955;-64
2023/10/24 13:21:26;;;;;;;;;;;19.90;65.60;;;;;;6320020;28;20400;-64
2023/10/24 13:24:27;;;;;;;;;;;19.90;64.60;;;;;;6318245;28;19912;-64
2023/10/24 13:27:27;;;;;;;;;;;19.90;64.90;;;;;;6320387;28;20267;-64
2023/10/24 13:30:31;;;;;;;;;;;19.90;64.80;;;;;;6318980;28;19908;-63
2023/10/24 13:33:31;;;;;;;;;;;19.90;64.60;;;;;;6318940;28;20283;-64
2023/10/24 13:36:32;;;;;;;;;;;19.90;64.50;;;;;;6321569;28;19983;-64
2023/10/24 13:39:32;;;;;;;;;;;19.90;64.40;;;;;;6321035;28;19916;-64
2023/10/24 13:42:33;;;;;;;;;;;19.80;64.50;;;;;;6318706;28;19916;-63
2023/10/24 13:45:33;;;;;;;;;;;19.90;64.30;;;;;;6318546;28;19915;-63
2023/10/24 13:48:34;;;;;;;;;;;19.90;64.30;;;;;;6319193;28;20457;-64
2023/10/24 13:51:35;;;;;;;;;;;19.90;64.50;;;;;;6317254;28;19908;-64
2023/10/24 13:54:35;;;;;;;;;;;19.90;64.50;;;;;;6320861;28;20268;-63
2023/10/24 13:57:36;;;;;;;;;;;19.90;64.60;;;;;;6318439;28;19995;-63
2023/10/24 14:00:37;;;;;;;;;;;19.80;64.30;;;;;;6318797;28;19915;-63
2023/10/24 14:03:38;;;;;;;;;;;19.80;64.30;;;;;;6318278;28;20325;-63
2023/10/24 14:06:38;;;;;;;;;;;19.80;64.20;;;;;;6320304;28;19994;-63
2023/10/24 14:09:40;;;;;;;;;;;19.80;64.40;;;;;;6315942;28;19958;-64
2023/10/24 14:12:41;;;;;;;;;;;19.80;64.30;;;;;;6319095;28;20355;-64
2023/10/24 14:15:41;;;;;;;;;;;19.80;64.50;;;;;;6318198;28;19908;-64
2023/10/24 14:18:42;;;;;;;;;;;19.80;64.50;;;;;;6318512;28;19919;-63
2023/10/24 14:21:42;;;;;;;;;;;19.80;64.40;;;;;;6321841;28;20115;-64
2023/10/24 14:24:43;;;;;;;;;;;19.90;64.50;;;;;;6318406;28;19908;-64
2023/10/24 14:27:43;;;;;;;;;;;19.80;64.50;;;;;;6325742;28;20325;-64
2023/10/24 14:30:44;;;;;;;;;;;19.80;64.60;;;;;;6320055;28;19908;-63
2023/10/24 14:33:45;;;;;;;;;;;19.80;64.60;;;;;;6318180;28;19958;-64
2023/10/24 14:36:46;;;;;;;;;;;19.80;64.40;;;;;;6317503;28;19912;-65
2023/10/24 14:39:47;;;;;;;;;;;19.80;64.20;;;;;;6317884;28;19943;-64
2023/10/24 14:42:47;;;;;;;;;;;19.80;64.30;;;;;;6316288;28;19916;-64
2023/10/24 14:45:48;;;;;;;;;;;19.80;64.30;;;;;;6317731;28;19908;-65
2023/10/24 14:48:49;;;;;;;;;;;19.80;64.60;;;;;;6317745;28;19908;-64
2023/10/24 14:51:49;;;;;;;;;;;19.80;64.30;;;;;;6317477;28;20394;-63
2023/10/24 14:54:50;;;;;;;;;;;19.80;64.40;;;;;;6326413;28;19908;-63
2023/10/24 14:57:50;;;;;;;;;;;19.80;64.40;;;;;;6316832;28;19918;-64
2023/10/24 15:00:51;;;;;;;;;;;19.80;64.40;;;;;;6325637;28;19908;-64
2023/10/24 15:03:51;;;;;;;;;;;19.80;64.40;;;;;;6316933;28;19908;-65
2023/10/24 15:06:52;;;;;;;;;;;19.80;64.50;;;;;;6320220;28;19908;-64
2023/10/24 15:09:52;;;;;;;;;;;19.80;64.30;;;;;;6317201;28;20472;-63
2023/10/24 15:12:53;;;;;;;;;;;19.80;64.90;;;;;;6316490;28;19915;-63
2023/10/24 15:15:54;;;;;;;;;;;19.80;64.50;;;;;;6318653;28;19912;-64
2023/10/24 15:18:55;;;;;;;;;;;19.80;64.70;;;;;;6315844;28;20063;-64
2023/10/24 15:21:55;;;;;;;;;;;19.80;65.10;;;;;;6316935;28;20010;-63
2023/10/24 15:24:56;;;;;;;;;;;19.80;64.50;;;;;;6315631;28;19958;-64
2023/10/24 15:27:56;;;;;;;;;;;19.80;64.50;;;;;;6309113;28;19914;-64
2023/10/24 15:30:57;;;;;;;;;;;19.80;64.90;;;;;;6315939;28;19915;-64
2023/10/24 15:33:58;;;;;;;;;;;19.80;64.50;;;;;;6316475;28;19908;-64
2023/10/24 15:36:59;;;;;;;;;;;19.80;64.30;;;;;;6316497;28;19941;-64
2023/10/24 15:39:59;;;;;;;;;;;19.80;64.30;;;;;;6316597;28;20349;-64
2023/10/24 15:43:00;;;;;;;;;;;19.80;64.20;;;;;;6316192;28;19917;-64
2023/10/24 15:46:06;;;;;;;;;;;19.80;64.30;;;;;;6320290;28;19951;-64
2023/10/24 15:49:07;;;;;;;;;;;19.80;64.20;;;;;;6315659;28;19990;-64
2023/10/24 15:52:07;;;;;;;;;;;19.80;64.50;;;;;;6315800;28;19912;-64
2023/10/24 15:55:08;;;;;;;;;;;19.80;64.70;;;;;;6315643;28;19907;-65
2023/10/24 15:58:09;;;;;;;;;;;19.80;64.80;;;;;;6311708;28;19908;-64
2023/10/24 16:01:16;;;;;;;;;;;19.90;64.60;;;;;;6309272;28;19990;-65
2023/10/24 16:04:16;;;;;;;;;;;20.00;64.00;;;;;;6314100;28;20369;-65
2023/10/24 16:07:17;;;;;;;;;;;20.00;64.20;;;;;;6314540;28;19908;-65
2023/10/24 16:10:18;;;;;;;;;;;20.10;64.10;;;;;;6310273;28;19909;-65
2023/10/24 16:13:19;;;;;;;;;;;20.10;63.80;;;;;;6314275;28;19920;-64
2023/10/24 16:16:22;;;;;;;;;;;20.10;64.10;;;;;;6307667;28;19912;-65
2023/10/24 16:19:22;;;;;;;;;;;20.10;64.00;;;;;;6307542;28;19965;-64
2023/10/24 16:22:23;;;;;;;;;;;20.10;63.90;;;;;;6312919;28;19919;-64
2023/10/24 16:25:24;;;;;;;;;;;20.00;63.80;;;;;;6321872;28;19915;-64
2023/10/24 16:28:25;;;;;;;;;;;20.00;63.80;;;;;;6307015;28;19915;-63
2023/10/24 16:31:25;;;;;;;;;;;20.00;63.90;;;;;;6316525;28;19919;-64
2023/10/24 16:34:27;;;;;;;;;;;20.00;63.90;;;;;;6318995;28;20411;-63
2023/10/24 16:37:27;;;;;;;;;;;20.00;63.90;;;;;;6318616;28;19908;-63
2023/10/24 16:40:30;;;;;;;;;;;20.10;64.00;;;;;;6305912;28;19923;-63
2023/10/24 16:43:31;;;;;;;;;;;20.10;64.00;;;;;;6318370;28;19920;-64
2023/10/24 16:46:31;;;;;;;;;;;20.10;64.00;;;;;;6309312;28;19934;-63
2023/10/24 16:49:32;;;;;;;;;;;20.10;64.00;;;;;;6313391;28;19909;-64
2023/10/24 16:52:33;;;;;;;;;;;20.10;64.00;;;;;;6312660;28;19958;-64
2023/10/24 16:55:35;;;;;;;;;;;20.10;64.00;;;;;;6302774;28;19912;-63
2023/10/24 16:58:35;;;;;;;;;;;20.10;64.00;;;;;;6317862;28;19908;-64
2023/10/24 17:01:37;;;;;;;;;;;20.10;64.00;;;;;;6306525;28;19950;-64
2023/10/24 17:04:37;;;;;;;;;;;20.10;64.00;;;;;;6317163;28;19915;-64
2023/10/24 17:07:41;;;;;;;;;;;20.10;64.00;;;;;;6320057;28;19908;-64
2023/10/24 17:10:41;;;;;;;;;;;20.20;64.20;;;;;;6306470;28;19939;-63
2023/10/24 17:13:42;;;;;;;;;;;20.20;64.20;;;;;;6320099;28;20342;-64
2023/10/24 17:16:43;;;;;;;;;;;20.20;64.70;;;;;;6316440;28;19953;-64
2023/10/24 17:19:43;;;;;;;;;;;20.30;63.60;;;;;;6316618;28;19908;-64
2023/10/24 17:22:44;;;;;;;;;;;20.40;63.40;;;;;;6317421;28;19949;-65
2023/10/24 17:25:45;;;;;;;;;;;20.40;63.20;;;;;;6311158;28;20019;-62
2023/10/24 17:28:45;;;;;;;;;;;20.50;63.20;;;;;;6316749;28;19968;-64
2023/10/24 17:31:46;;;;;;;;;;;20.50;63.20;;;;;;6312071;28;20407;-64
2023/10/24 17:34:47;;;;;;;;;;;20.50;63.40;;;;;;6313218;28;19950;-64